Skip Navigation Links
NOAA logo - Click to go to the NOAA homepage
NOAA's National Weather Service
Alaska Aviation Weather Unit
  NWS logo - Click to go to the NWS homepage
Left Navbar Graphic     10 AKDT = 18 GMT

   
NOAA is celebrating 200 years of science, service, and stewardship. Visit the NOAA 200th celebration Web site to learn more.
USA.gov is the U.S. Government's official Web portal to all Federal, state and local government Web resources and services.
Facebook
NWS on Facebook

Important Change Regarding the AAWU Web Presence

 

Over the last several months, the AAWU has been working to navigate its webpages to a nationally supported server. Security, as well as other needs, have necessitated the change.  We have been given an extension for the site changeover while we diligently work at addressing feedback received. As of July 14, 2017, aawu.arh.noaa.gov will be discontinued. The new AAWU web address is weather.gov/aawu. It is now live and will run in-parallel with the old site until it is discontinued on July 14, 2017. Please continue to send any feedback or questions regarding the new webpages to nws.ar.aawu.webauthors@noaa.gov.  Thank you for your patience during this time of transition.
AAWU Home :: Display TAF Add Bookmark
METAR PABV 261256Z AUTO 00000KT 10SM OVC031 04/03 A2976 RMK AO2
 SLP086 T00390033 $=

METAR PABV 261356Z AUTO 00000KT 10SM FEW031 03/02 A2975 RMK AO2 SLP082
     T00280022 $=

SPECI PABV 261443Z AUTO 00000KT 1 1/2SM BR CLR 03/02 A2974 RMK AO2 $=

PABV 261445Z AUTO 00000KT 3/4SM BR VV002 03/02 A2974 RMK AO2 $=

SPECI PABV 261450Z AUTO 00000KT 1/4SM FG VV002 03/02 A2974 RMK AO2 $=

METAR PABV 261456Z AUTO 15003KT 1/4SM FG BKN002 03/03 A2974 RMK AO2
     SLP079 T00280028 56013 $=

SPECI PABV 261512Z AUTO 00000KT 3/4SM BR OVC002 03/03 A2974 RMK AO2
     $=

SPECI PABV 261517Z AUTO 00000KT 1 1/4SM BR OVC002 03/03 A2974 RMK AO2
     $=

SPECI PABV 261523Z AUTO 26003KT 3SM BR OVC002 03/02 A2974 RMK AO2 $=

METAR PABV 261556Z AUTO 00000KT 10SM SCT002 02/02 A2974 RMK AO2 SLP078
     T00170017 FZRANO $=

SPECI PABV 261633Z AUTO 19004KT 1 1/2SM BR CLR 01/01 A2973 RMK AO2
     FZRANO $=

SPECI PABV 261638Z AUTO 19003KT 3/4SM BR CLR 01/01 A2973 RMK AO2 VIS
     M1/4V5 FZRANO $=

SPECI PABV 261640Z AUTO 19003KT 1/4SM FG CLR 02/01 A2973 RMK AO2 FZRANO
     $=

METAR PABV 261656Z AUTO 18004KT M1/4SM FG CLR 02/02 A2973 RMK AO2 SLP076
     T00220017 FZRANO $=

SPECI PABV 261704Z AUTO 17005KT M1/4SM FG VV002 02/02 A2973 RMK AO2
     FZRANO $=

METAR PABV 261756Z AUTO 20004KT 1/4SM FG OVC002 02/02 A2972 RMK AO2
     SLP072 T00220022 10050 20011 58007 FZRANO $=


NOAA's National Weather Service
Alaska Aviation Weather Unit
6930 Sand Lake Road
Anchorage, AK 99502-1845
Disclaimer
Credits
Glossary
Privacy Policy
About Us
Career Opportunities
Contact AAWU Internet Services Site last modified: April, 17th 2012